sensor_id;sensor_type;location;lat;lon;timestamp;P1;durP1;ratioP1;P2;durP2;ratioP2
17993;SDS011;9122;48.406;9.984;2023-06-22T00:00:06;9.57;;;6.35;;
17993;SDS011;9122;48.406;9.984;2023-06-22T00:02:55;7.03;;;6.18;;
17993;SDS011;9122;48.406;9.984;2023-06-22T00:05:40;8.10;;;5.88;;
17993;SDS011;9122;48.406;9.984;2023-06-22T00:08:24;7.85;;;6.35;;
17993;SDS011;9122;48.406;9.984;2023-06-22T00:11:08;6.18;;;5.57;;
17993;SDS011;9122;48.406;9.984;2023-06-22T00:13:52;6.95;;;6.13;;
17993;SDS011;9122;48.406;9.984;2023-06-22T00:16:37;7.57;;;6.72;;
17993;SDS011;9122;48.406;9.984;2023-06-22T00:19:21;10.55;;;6.22;;
17993;SDS011;9122;48.406;9.984;2023-06-22T00:22:06;7.43;;;6.28;;
17993;SDS011;9122;48.406;9.984;2023-06-22T00:24:51;10.93;;;6.97;;
17993;SDS011;9122;48.406;9.984;2023-06-22T00:27:35;5.82;;;5.32;;
17993;SDS011;9122;48.406;9.984;2023-06-22T00:30:20;8.05;;;6.13;;
17993;SDS011;9122;48.406;9.984;2023-06-22T00:33:04;8.23;;;7.25;;
17993;SDS011;9122;48.406;9.984;2023-06-22T00:35:51;8.25;;;7.13;;
17993;SDS011;9122;48.406;9.984;2023-06-22T00:38:36;10.48;;;7.15;;
17993;SDS011;9122;48.406;9.984;2023-06-22T00:41:24;11.00;;;7.88;;
17993;SDS011;9122;48.406;9.984;2023-06-22T00:44:12;10.30;;;7.60;;
17993;SDS011;9122;48.406;9.984;2023-06-22T00:46:56;8.60;;;7.43;;
17993;SDS011;9122;48.406;9.984;2023-06-22T00:49:41;8.23;;;7.22;;
17993;SDS011;9122;48.406;9.984;2023-06-22T00:52:25;9.90;;;7.75;;
17993;SDS011;9122;48.406;9.984;2023-06-22T00:55:12;9.50;;;7.32;;
17993;SDS011;9122;48.406;9.984;2023-06-22T00:58:01;8.95;;;7.97;;
17993;SDS011;9122;48.406;9.984;2023-06-22T01:00:46;8.80;;;7.20;;
17993;SDS011;9122;48.406;9.984;2023-06-22T01:03:30;8.75;;;7.32;;
17993;SDS011;9122;48.406;9.984;2023-06-22T01:06:16;12.60;;;7.35;;
17993;SDS011;9122;48.406;9.984;2023-06-22T01:09:12;8.57;;;6.97;;
17993;SDS011;9122;48.406;9.984;2023-06-22T01:12:01;9.38;;;7.30;;
17993;SDS011;9122;48.406;9.984;2023-06-22T01:14:50;8.15;;;6.78;;
17993;SDS011;9122;48.406;9.984;2023-06-22T01:17:41;8.15;;;7.30;;
17993;SDS011;9122;48.406;9.984;2023-06-22T01:20:28;10.30;;;7.68;;
17993;SDS011;9122;48.406;9.984;2023-06-22T01:29:27;8.98;;;6.85;;
17993;SDS011;9122;48.406;9.984;2023-06-22T01:32:13;7.88;;;7.10;;
17993;SDS011;9122;48.406;9.984;2023-06-22T01:35:01;8.45;;;6.93;;
17993;SDS011;9122;48.406;9.984;2023-06-22T01:37:48;7.07;;;6.38;;
17993;SDS011;9122;48.406;9.984;2023-06-22T01:40:33;7.60;;;6.68;;
17993;SDS011;9122;48.406;9.984;2023-06-22T01:43:19;12.00;;;7.03;;
17993;SDS011;9122;48.406;9.984;2023-06-22T01:46:07;9.68;;;7.25;;
17993;SDS011;9122;48.406;9.984;2023-06-22T01:48:56;13.73;;;8.60;;
17993;SDS011;9122;48.406;9.984;2023-06-22T01:51:41;8.13;;;6.95;;
17993;SDS011;9122;48.406;9.984;2023-06-22T01:54:25;7.60;;;6.80;;
17993;SDS011;9122;48.406;9.984;2023-06-22T01:57:10;10.63;;;6.88;;
17993;SDS011;9122;48.406;9.984;2023-06-22T02:00:03;7.88;;;7.18;;
17993;SDS011;9122;48.406;9.984;2023-06-22T02:06:01;9.20;;;7.80;;
17993;SDS011;9122;48.406;9.984;2023-06-22T02:08:54;7.65;;;6.72;;
17993;SDS011;9122;48.406;9.984;2023-06-22T02:11:43;9.30;;;7.10;;
17993;SDS011;9122;48.406;9.984;2023-06-22T02:14:30;7.78;;;6.90;;
17993;SDS011;9122;48.406;9.984;2023-06-22T02:17:18;10.07;;;7.15;;
17993;SDS011;9122;48.406;9.984;2023-06-22T02:20:03;10.57;;;6.60;;
17993;SDS011;9122;48.406;9.984;2023-06-22T02:22:52;6.80;;;6.10;;
17993;SDS011;9122;48.406;9.984;2023-06-22T02:25:36;9.15;;;6.55;;
17993;SDS011;9122;48.406;9.984;2023-06-22T02:28:21;9.48;;;6.72;;
17993;SDS011;9122;48.406;9.984;2023-06-22T02:31:05;8.25;;;6.53;;
17993;SDS011;9122;48.406;9.984;2023-06-22T02:33:50;8.80;;;6.03;;
17993;SDS011;9122;48.406;9.984;2023-06-22T02:36:34;10.55;;;6.72;;
17993;SDS011;9122;48.406;9.984;2023-06-22T02:39:22;8.05;;;6.28;;
17993;SDS011;9122;48.406;9.984;2023-06-22T02:42:08;8.23;;;5.85;;
17993;SDS011;9122;48.406;9.984;2023-06-22T02:44:54;7.78;;;6.70;;
17993;SDS011;9122;48.406;9.984;2023-06-22T02:47:38;8.00;;;7.30;;
17993;SDS011;9122;48.406;9.984;2023-06-22T02:50:22;10.68;;;6.35;;
17993;SDS011;9122;48.406;9.984;2023-06-22T02:53:06;9.27;;;6.80;;
17993;SDS011;9122;48.406;9.984;2023-06-22T02:55:51;8.60;;;7.28;;
17993;SDS011;9122;48.406;9.984;2023-06-22T02:58:35;7.28;;;6.57;;
17993;SDS011;9122;48.406;9.984;2023-06-22T03:01:22;11.30;;;6.50;;
17993;SDS011;9122;48.406;9.984;2023-06-22T03:04:08;7.32;;;6.63;;
17993;SDS011;9122;48.406;9.984;2023-06-22T03:06:53;9.68;;;7.05;;
17993;SDS011;9122;48.406;9.984;2023-06-22T03:09:37;10.80;;;6.80;;
17993;SDS011;9122;48.406;9.984;2023-06-22T03:12:21;9.63;;;6.88;;
17993;SDS011;9122;48.406;9.984;2023-06-22T03:15:06;8.10;;;6.53;;
17993;SDS011;9122;48.406;9.984;2023-06-22T03:17:51;12.65;;;6.43;;
17993;SDS011;9122;48.406;9.984;2023-06-22T03:20:36;8.45;;;6.60;;
17993;SDS011;9122;48.406;9.984;2023-06-22T03:23:20;8.77;;;7.03;;
17993;SDS011;9122;48.406;9.984;2023-06-22T03:26:04;12.48;;;7.10;;
17993;SDS011;9122;48.406;9.984;2023-06-22T03:28:48;8.55;;;5.90;;
17993;SDS011;9122;48.406;9.984;2023-06-22T03:31:33;9.65;;;6.47;;
17993;SDS011;9122;48.406;9.984;2023-06-22T03:34:17;7.00;;;6.35;;
17993;SDS011;9122;48.406;9.984;2023-06-22T03:37:02;7.20;;;6.25;;
17993;SDS011;9122;48.406;9.984;2023-06-22T03:39:47;8.73;;;7.13;;
17993;SDS011;9122;48.406;9.984;2023-06-22T03:42:31;9.80;;;6.50;;
17993;SDS011;9122;48.406;9.984;2023-06-22T03:45:16;7.05;;;6.30;;
17993;SDS011;9122;48.406;9.984;2023-06-22T03:48:01;10.02;;;6.75;;
17993;SDS011;9122;48.406;9.984;2023-06-22T03:50:45;8.52;;;6.72;;
17993;SDS011;9122;48.406;9.984;2023-06-22T03:53:29;8.13;;;6.60;;
17993;SDS011;9122;48.406;9.984;2023-06-22T03:56:14;9.48;;;6.22;;
17993;SDS011;9122;48.406;9.984;2023-06-22T03:59:04;7.13;;;6.35;;
17993;SDS011;9122;48.406;9.984;2023-06-22T04:01:48;10.57;;;6.82;;
17993;SDS011;9122;48.406;9.984;2023-06-22T04:04:32;8.10;;;6.57;;
17993;SDS011;9122;48.406;9.984;2023-06-22T04:07:17;8.73;;;6.70;;
17993;SDS011;9122;48.406;9.984;2023-06-22T04:10:02;7.95;;;6.63;;
17993;SDS011;9122;48.406;9.984;2023-06-22T04:12:47;7.75;;;7.05;;
17993;SDS011;9122;48.406;9.984;2023-06-22T04:15:31;6.88;;;6.18;;
17993;SDS011;9122;48.406;9.984;2023-06-22T04:18:15;7.95;;;6.40;;
17993;SDS011;9122;48.406;9.984;2023-06-22T04:20:59;8.07;;;6.47;;
17993;SDS011;9122;48.406;9.984;2023-06-22T04:23:44;6.95;;;5.82;;
17993;SDS011;9122;48.406;9.984;2023-06-22T04:26:29;9.73;;;7.13;;
17993;SDS011;9122;48.406;9.984;2023-06-22T04:29:13;8.77;;;6.65;;
17993;SDS011;9122;48.406;9.984;2023-06-22T04:31:58;6.78;;;5.88;;
17993;SDS011;9122;48.406;9.984;2023-06-22T04:34:49;8.68;;;6.50;;
17993;SDS011;9122;48.406;9.984;2023-06-22T04:37:33;8.18;;;6.18;;
17993;SDS011;9122;48.406;9.984;2023-06-22T04:40:18;7.10;;;5.65;;
17993;SDS011;9122;48.406;9.984;2023-06-22T04:43:03;7.07;;;6.22;;
17993;SDS011;9122;48.406;9.984;2023-06-22T04:45:49;8.15;;;5.65;;
17993;SDS011;9122;48.406;9.984;2023-06-22T04:48:36;7.50;;;5.70;;
17993;SDS011;9122;48.406;9.984;2023-06-22T04:51:20;6.95;;;6.25;;
17993;SDS011;9122;48.406;9.984;2023-06-22T04:54:05;8.27;;;5.55;;
17993;SDS011;9122;48.406;9.984;2023-06-22T04:56:49;7.57;;;6.00;;
17993;SDS011;9122;48.406;9.984;2023-06-22T04:59:40;6.63;;;5.63;;
17993;SDS011;9122;48.406;9.984;2023-06-22T05:02:25;6.38;;;5.80;;
17993;SDS011;9122;48.406;9.984;2023-06-22T05:05:12;6.90;;;6.18;;
17993;SDS011;9122;48.406;9.984;2023-06-22T05:07:57;6.43;;;5.82;;
17993;SDS011;9122;48.406;9.984;2023-06-22T05:10:44;6.43;;;5.82;;
17993;SDS011;9122;48.406;9.984;2023-06-22T05:13:29;7.55;;;5.70;;
17993;SDS011;9122;48.406;9.984;2023-06-22T05:16:13;12.48;;;6.97;;
17993;SDS011;9122;48.406;9.984;2023-06-22T05:18:57;6.82;;;5.95;;
17993;SDS011;9122;48.406;9.984;2023-06-22T05:21:42;8.75;;;5.68;;
17993;SDS011;9122;48.406;9.984;2023-06-22T05:24:26;6.80;;;6.10;;
17993;SDS011;9122;48.406;9.984;2023-06-22T05:27:10;6.00;;;5.50;;
17993;SDS011;9122;48.406;9.984;2023-06-22T05:29:55;6.70;;;6.00;;
17993;SDS011;9122;48.406;9.984;2023-06-22T05:32:40;7.03;;;5.55;;
17993;SDS011;9122;48.406;9.984;2023-06-22T05:35:24;6.72;;;6.05;;
17993;SDS011;9122;48.406;9.984;2023-06-22T05:38:08;7.43;;;6.05;;
17993;SDS011;9122;48.406;9.984;2023-06-22T05:40:52;6.85;;;5.53;;
17993;SDS011;9122;48.406;9.984;2023-06-22T05:43:37;6.10;;;5.50;;
17993;SDS011;9122;48.406;9.984;2023-06-22T05:46:21;6.80;;;6.20;;
17993;SDS011;9122;48.406;9.984;2023-06-22T05:49:07;6.05;;;5.53;;
17993;SDS011;9122;48.406;9.984;2023-06-22T05:51:52;7.05;;;5.95;;
17993;SDS011;9122;48.406;9.984;2023-06-22T05:54:37;8.25;;;5.60;;
17993;SDS011;9122;48.406;9.984;2023-06-22T05:57:23;5.88;;;5.35;;
17993;SDS011;9122;48.406;9.984;2023-06-22T06:00:07;6.90;;;6.30;;
17993;SDS011;9122;48.406;9.984;2023-06-22T06:02:54;9.07;;;6.45;;
17993;SDS011;9122;48.406;9.984;2023-06-22T06:05:39;8.52;;;6.25;;
17993;SDS011;9122;48.406;9.984;2023-06-22T06:08:23;6.32;;;5.82;;
17993;SDS011;9122;48.406;9.984;2023-06-22T06:11:08;7.38;;;6.47;;
17993;SDS011;9122;48.406;9.984;2023-06-22T06:13:53;6.47;;;5.88;;
17993;SDS011;9122;48.406;9.984;2023-06-22T06:16:37;7.50;;;6.30;;
17993;SDS011;9122;48.406;9.984;2023-06-22T06:19:21;7.60;;;6.40;;
17993;SDS011;9122;48.406;9.984;2023-06-22T06:22:05;7.00;;;6.40;;
17993;SDS011;9122;48.406;9.984;2023-06-22T06:24:49;6.35;;;5.47;;
17993;SDS011;9122;48.406;9.984;2023-06-22T06:27:34;6.25;;;5.55;;
17993;SDS011;9122;48.406;9.984;2023-06-22T06:30:18;8.07;;;6.38;;
17993;SDS011;9122;48.406;9.984;2023-06-22T06:33:03;8.15;;;7.40;;
17993;SDS011;9122;48.406;9.984;2023-06-22T06:35:52;9.43;;;6.28;;
17993;SDS011;9122;48.406;9.984;2023-06-22T06:38:37;7.30;;;5.85;;
17993;SDS011;9122;48.406;9.984;2023-06-22T06:41:21;6.05;;;5.47;;
17993;SDS011;9122;48.406;9.984;2023-06-22T06:44:05;15.07;;;6.40;;
17993;SDS011;9122;48.406;9.984;2023-06-22T06:46:49;7.57;;;6.15;;
17993;SDS011;9122;48.406;9.984;2023-06-22T06:49:34;8.98;;;6.20;;
17993;SDS011;9122;48.406;9.984;2023-06-22T06:52:19;7.25;;;6.03;;
17993;SDS011;9122;48.406;9.984;2023-06-22T06:55:04;7.60;;;6.30;;
17993;SDS011;9122;48.406;9.984;2023-06-22T06:57:54;6.05;;;5.30;;
17993;SDS011;9122;48.406;9.984;2023-06-22T07:00:39;6.13;;;5.47;;
17993;SDS011;9122;48.406;9.984;2023-06-22T07:03:24;6.55;;;5.95;;
17993;SDS011;9122;48.406;9.984;2023-06-22T07:06:08;7.10;;;6.25;;
17993;SDS011;9122;48.406;9.984;2023-06-22T07:08:53;8.13;;;6.53;;
17993;SDS011;9122;48.406;9.984;2023-06-22T07:11:38;11.32;;;7.25;;
17993;SDS011;9122;48.406;9.984;2023-06-22T07:14:23;7.03;;;6.28;;
17993;SDS011;9122;48.406;9.984;2023-06-22T07:17:07;7.85;;;6.15;;
17993;SDS011;9122;48.406;9.984;2023-06-22T07:19:51;7.47;;;5.68;;
17993;SDS011;9122;48.406;9.984;2023-06-22T07:22:36;8.68;;;6.60;;
17993;SDS011;9122;48.406;9.984;2023-06-22T07:25:24;7.07;;;6.13;;
17993;SDS011;9122;48.406;9.984;2023-06-22T07:28:08;6.60;;;6.00;;
17993;SDS011;9122;48.406;9.984;2023-06-22T07:30:52;6.95;;;6.03;;
17993;SDS011;9122;48.406;9.984;2023-06-22T07:33:37;6.32;;;5.72;;
17993;SDS011;9122;48.406;9.984;2023-06-22T07:36:22;7.75;;;5.88;;
17993;SDS011;9122;48.406;9.984;2023-06-22T07:39:06;7.35;;;5.93;;
17993;SDS011;9122;48.406;9.984;2023-06-22T07:41:50;9.10;;;6.40;;
17993;SDS011;9122;48.406;9.984;2023-06-22T07:44:34;7.70;;;6.72;;
17993;SDS011;9122;48.406;9.984;2023-06-22T07:47:18;9.27;;;6.28;;
17993;SDS011;9122;48.406;9.984;2023-06-22T07:50:03;6.85;;;5.65;;
17993;SDS011;9122;48.406;9.984;2023-06-22T07:52:48;12.10;;;6.43;;
17993;SDS011;9122;48.406;9.984;2023-06-22T07:55:36;6.55;;;6.05;;
17993;SDS011;9122;48.406;9.984;2023-06-22T07:58:20;5.80;;;5.13;;
17993;SDS011;9122;48.406;9.984;2023-06-22T08:01:05;6.88;;;5.45;;
17993;SDS011;9122;48.406;9.984;2023-06-22T08:03:49;7.57;;;6.03;;
17993;SDS011;9122;48.406;9.984;2023-06-22T08:06:34;6.63;;;5.68;;
17993;SDS011;9122;48.406;9.984;2023-06-22T08:09:19;9.85;;;6.68;;
17993;SDS011;9122;48.406;9.984;2023-06-22T08:12:04;8.32;;;6.75;;
17993;SDS011;9122;48.406;9.984;2023-06-22T08:14:48;9.13;;;5.50;;
17993;SDS011;9122;48.406;9.984;2023-06-22T08:17:34;6.47;;;5.50;;
17993;SDS011;9122;48.406;9.984;2023-06-22T08:20:19;7.95;;;6.00;;
17993;SDS011;9122;48.406;9.984;2023-06-22T08:23:06;13.30;;;6.68;;
17993;SDS011;9122;48.406;9.984;2023-06-22T08:25:51;6.85;;;5.78;;
17993;SDS011;9122;48.406;9.984;2023-06-22T08:28:35;7.22;;;5.85;;
17993;SDS011;9122;48.406;9.984;2023-06-22T08:31:20;8.48;;;5.85;;
17993;SDS011;9122;48.406;9.984;2023-06-22T08:34:05;8.10;;;5.50;;
17993;SDS011;9122;48.406;9.984;2023-06-22T08:36:49;6.53;;;5.88;;
17993;SDS011;9122;48.406;9.984;2023-06-22T08:39:35;6.57;;;5.18;;
17993;SDS011;9122;48.406;9.984;2023-06-22T08:42:23;6.05;;;5.45;;
17993;SDS011;9122;48.406;9.984;2023-06-22T08:45:08;11.57;;;5.72;;
17993;SDS011;9122;48.406;9.984;2023-06-22T08:47:53;11.20;;;7.07;;
17993;SDS011;9122;48.406;9.984;2023-06-22T08:50:38;7.35;;;6.05;;
17993;SDS011;9122;48.406;9.984;2023-06-22T08:53:24;6.95;;;5.85;;
17993;SDS011;9122;48.406;9.984;2023-06-22T08:56:08;9.52;;;6.25;;
17993;SDS011;9122;48.406;9.984;2023-06-22T08:58:52;6.85;;;6.22;;
17993;SDS011;9122;48.406;9.984;2023-06-22T09:01:40;7.68;;;6.47;;
17993;SDS011;9122;48.406;9.984;2023-06-22T09:04:29;10.93;;;6.70;;
17993;SDS011;9122;48.406;9.984;2023-06-22T09:07:14;6.95;;;5.32;;
17993;SDS011;9122;48.406;9.984;2023-06-22T09:10:06;9.40;;;6.40;;
17993;SDS011;9122;48.406;9.984;2023-06-22T09:12:51;11.95;;;6.90;;
17993;SDS011;9122;48.406;9.984;2023-06-22T09:15:36;8.45;;;5.80;;
17993;SDS011;9122;48.406;9.984;2023-06-22T09:18:20;9.25;;;5.57;;
17993;SDS011;9122;48.406;9.984;2023-06-22T09:21:05;6.80;;;6.00;;
17993;SDS011;9122;48.406;9.984;2023-06-22T09:23:50;7.82;;;6.13;;
17993;SDS011;9122;48.406;9.984;2023-06-22T09:26:35;6.28;;;5.65;;
17993;SDS011;9122;48.406;9.984;2023-06-22T09:29:19;6.40;;;5.28;;
17993;SDS011;9122;48.406;9.984;2023-06-22T09:32:03;5.38;;;4.88;;
17993;SDS011;9122;48.406;9.984;2023-06-22T09:34:48;13.30;;;7.22;;
17993;SDS011;9122;48.406;9.984;2023-06-22T09:37:32;9.93;;;6.80;;
17993;SDS011;9122;48.406;9.984;2023-06-22T09:40:17;10.95;;;5.75;;
17993;SDS011;9122;48.406;9.984;2023-06-22T09:43:02;8.68;;;5.95;;
17993;SDS011;9122;48.406;9.984;2023-06-22T09:45:46;7.05;;;5.53;;
17993;SDS011;9122;48.406;9.984;2023-06-22T09:48:30;6.00;;;5.20;;
17993;SDS011;9122;48.406;9.984;2023-06-22T09:51:15;7.57;;;5.45;;
17993;SDS011;9122;48.406;9.984;2023-06-22T09:54:00;7.65;;;5.85;;
17993;SDS011;9122;48.406;9.984;2023-06-22T09:56:44;6.13;;;5.20;;
17993;SDS011;9122;48.406;9.984;2023-06-22T09:59:28;9.90;;;7.28;;
17993;SDS011;9122;48.406;9.984;2023-06-22T10:02:13;10.50;;;6.78;;
17993;SDS011;9122;48.406;9.984;2023-06-22T10:04:57;9.07;;;7.10;;
17993;SDS011;9122;48.406;9.984;2023-06-22T10:07:41;10.13;;;5.00;;
17993;SDS011;9122;48.406;9.984;2023-06-22T10:10:26;6.20;;;5.18;;
17993;SDS011;9122;48.406;9.984;2023-06-22T10:13:11;7.07;;;5.63;;
17993;SDS011;9122;48.406;9.984;2023-06-22T10:15:56;8.23;;;6.15;;
17993;SDS011;9122;48.406;9.984;2023-06-22T10:18:41;6.43;;;5.82;;
17993;SDS011;9122;48.406;9.984;2023-06-22T10:21:25;7.13;;;6.53;;
17993;SDS011;9122;48.406;9.984;2023-06-22T10:24:12;9.68;;;5.95;;
17993;SDS011;9122;48.406;9.984;2023-06-22T10:26:56;12.43;;;6.82;;
17993;SDS011;9122;48.406;9.984;2023-06-22T10:29:41;9.48;;;6.80;;
17993;SDS011;9122;48.406;9.984;2023-06-22T10:32:26;7.28;;;6.57;;
17993;SDS011;9122;48.406;9.984;2023-06-22T10:35:12;6.32;;;5.60;;
17993;SDS011;9122;48.406;9.984;2023-06-22T10:37:59;7.47;;;6.25;;
17993;SDS011;9122;48.406;9.984;2023-06-22T10:40:44;8.73;;;5.60;;
17993;SDS011;9122;48.406;9.984;2023-06-22T10:43:29;10.43;;;6.78;;
17993;SDS011;9122;48.406;9.984;2023-06-22T10:46:13;8.02;;;6.28;;
17993;SDS011;9122;48.406;9.984;2023-06-22T10:48:58;7.50;;;5.93;;
17993;SDS011;9122;48.406;9.984;2023-06-22T10:51:42;7.90;;;5.80;;
17993;SDS011;9122;48.406;9.984;2023-06-22T10:54:26;8.30;;;5.97;;
17993;SDS011;9122;48.406;9.984;2023-06-22T10:57:10;6.75;;;5.63;;
17993;SDS011;9122;48.406;9.984;2023-06-22T10:59:54;6.72;;;6.13;;
17993;SDS011;9122;48.406;9.984;2023-06-22T11:02:41;8.20;;;5.88;;
17993;SDS011;9122;48.406;9.984;2023-06-22T11:05:26;6.85;;;5.82;;
17993;SDS011;9122;48.406;9.984;2023-06-22T11:08:10;7.63;;;5.38;;
17993;SDS011;9122;48.406;9.984;2023-06-22T11:10:55;9.18;;;5.97;;
17993;SDS011;9122;48.406;9.984;2023-06-22T11:13:39;8.70;;;6.45;;
17993;SDS011;9122;48.406;9.984;2023-06-22T11:16:23;7.18;;;6.28;;
17993;SDS011;9122;48.406;9.984;2023-06-22T11:19:07;6.95;;;6.25;;
17993;SDS011;9122;48.406;9.984;2023-06-22T11:21:51;10.13;;;5.65;;
17993;SDS011;9122;48.406;9.984;2023-06-22T11:24:36;11.20;;;5.35;;
17993;SDS011;9122;48.406;9.984;2023-06-22T11:27:22;7.68;;;6.28;;
17993;SDS011;9122;48.406;9.984;2023-06-22T11:30:06;20.27;;;6.68;;
17993;SDS011;9122;48.406;9.984;2023-06-22T11:32:51;6.90;;;5.10;;
17993;SDS011;9122;48.406;9.984;2023-06-22T11:35:36;9.23;;;5.90;;
17993;SDS011;9122;48.406;9.984;2023-06-22T11:38:20;6.28;;;5.43;;
17993;SDS011;9122;48.406;9.984;2023-06-22T11:41:08;8.45;;;5.40;;
17993;SDS011;9122;48.406;9.984;2023-06-22T11:43:53;6.22;;;5.72;;
17993;SDS011;9122;48.406;9.984;2023-06-22T11:46:38;5.85;;;4.68;;
17993;SDS011;9122;48.406;9.984;2023-06-22T11:49:23;9.50;;;5.57;;
17993;SDS011;9122;48.406;9.984;2023-06-22T11:52:07;9.05;;;5.93;;
17993;SDS011;9122;48.406;9.984;2023-06-22T11:54:51;9.55;;;5.60;;
17993;SDS011;9122;48.406;9.984;2023-06-22T11:57:37;9.93;;;5.50;;
17993;SDS011;9122;48.406;9.984;2023-06-22T12:00:22;8.25;;;5.50;;
17993;SDS011;9122;48.406;9.984;2023-06-22T12:03:08;7.30;;;5.90;;
17993;SDS011;9122;48.406;9.984;2023-06-22T12:05:53;5.82;;;5.18;;
17993;SDS011;9122;48.406;9.984;2023-06-22T12:08:37;6.43;;;5.43;;
17993;SDS011;9122;48.406;9.984;2023-06-22T12:11:22;13.20;;;6.65;;
17993;SDS011;9122;48.406;9.984;2023-06-22T12:14:07;8.88;;;5.97;;
17993;SDS011;9122;48.406;9.984;2023-06-22T12:16:51;6.68;;;5.82;;
17993;SDS011;9122;48.406;9.984;2023-06-22T12:19:35;9.27;;;6.13;;
17993;SDS011;9122;48.406;9.984;2023-06-22T12:22:20;7.90;;;6.43;;
17993;SDS011;9122;48.406;9.984;2023-06-22T12:25:04;7.35;;;6.38;;
17993;SDS011;9122;48.406;9.984;2023-06-22T12:27:49;13.10;;;6.97;;
17993;SDS011;9122;48.406;9.984;2023-06-22T12:30:33;12.73;;;6.95;;
17993;SDS011;9122;48.406;9.984;2023-06-22T12:33:18;9.73;;;5.70;;
17993;SDS011;9122;48.406;9.984;2023-06-22T12:36:02;7.45;;;5.88;;
17993;SDS011;9122;48.406;9.984;2023-06-22T12:38:48;7.75;;;6.15;;
17993;SDS011;9122;48.406;9.984;2023-06-22T12:41:32;13.00;;;7.68;;
17993;SDS011;9122;48.406;9.984;2023-06-22T12:44:17;11.40;;;6.90;;
17993;SDS011;9122;48.406;9.984;2023-06-22T12:47:01;11.48;;;6.65;;
17993;SDS011;9122;48.406;9.984;2023-06-22T12:49:45;8.40;;;6.80;;
17993;SDS011;9122;48.406;9.984;2023-06-22T12:52:30;9.50;;;6.88;;
17993;SDS011;9122;48.406;9.984;2023-06-22T12:55:15;8.68;;;5.63;;
17993;SDS011;9122;48.406;9.984;2023-06-22T12:58:00;14.05;;;7.40;;
17993;SDS011;9122;48.406;9.984;2023-06-22T13:00:44;10.55;;;7.07;;
17993;SDS011;9122;48.406;9.984;2023-06-22T13:03:29;10.15;;;6.47;;
17993;SDS011;9122;48.406;9.984;2023-06-22T13:06:13;10.50;;;6.13;;
17993;SDS011;9122;48.406;9.984;2023-06-22T13:08:57;15.68;;;6.13;;
17993;SDS011;9122;48.406;9.984;2023-06-22T13:11:42;9.25;;;6.22;;
17993;SDS011;9122;48.406;9.984;2023-06-22T13:14:26;7.70;;;6.20;;
17993;SDS011;9122;48.406;9.984;2023-06-22T13:17:10;11.23;;;6.20;;
17993;SDS011;9122;48.406;9.984;2023-06-22T13:19:56;15.73;;;6.35;;
17993;SDS011;9122;48.406;9.984;2023-06-22T13:22:41;6.85;;;5.13;;
17993;SDS011;9122;48.406;9.984;2023-06-22T13:25:27;7.10;;;5.85;;
17993;SDS011;9122;48.406;9.984;2023-06-22T13:28:13;6.68;;;5.47;;
17993;SDS011;9122;48.406;9.984;2023-06-22T13:30:59;10.65;;;5.95;;
17993;SDS011;9122;48.406;9.984;2023-06-22T13:33:44;15.15;;;6.18;;
17993;SDS011;9122;48.406;9.984;2023-06-22T13:36:31;10.77;;;5.95;;
17993;SDS011;9122;48.406;9.984;2023-06-22T13:39:16;7.78;;;5.10;;
17993;SDS011;9122;48.406;9.984;2023-06-22T13:42:01;9.88;;;5.78;;
17993;SDS011;9122;48.406;9.984;2023-06-22T13:44:45;9.77;;;6.13;;
17993;SDS011;9122;48.406;9.984;2023-06-22T13:47:29;9.88;;;5.78;;
17993;SDS011;9122;48.406;9.984;2023-06-22T13:50:14;8.10;;;7.05;;
17993;SDS011;9122;48.406;9.984;2023-06-22T13:52:59;8.05;;;5.72;;
17993;SDS011;9122;48.406;9.984;2023-06-22T13:55:43;7.07;;;5.88;;
17993;SDS011;9122;48.406;9.984;2023-06-22T13:58:27;10.60;;;6.93;;
17993;SDS011;9122;48.406;9.984;2023-06-22T14:01:12;9.95;;;7.43;;
17993;SDS011;9122;48.406;9.984;2023-06-22T14:03:57;9.90;;;6.82;;
17993;SDS011;9122;48.406;9.984;2023-06-22T14:06:41;9.90;;;5.65;;
17993;SDS011;9122;48.406;9.984;2023-06-22T14:09:25;6.88;;;6.18;;
17993;SDS011;9122;48.406;9.984;2023-06-22T14:12:10;8.52;;;5.03;;
17993;SDS011;9122;48.406;9.984;2023-06-22T14:14:55;10.82;;;6.20;;
17993;SDS011;9122;48.406;9.984;2023-06-22T14:17:42;13.95;;;6.63;;
17993;SDS011;9122;48.406;9.984;2023-06-22T14:20:26;16.33;;;7.43;;
17993;SDS011;9122;48.406;9.984;2023-06-22T14:23:10;16.60;;;6.30;;
17993;SDS011;9122;48.406;9.984;2023-06-22T14:25:55;9.00;;;6.85;;
17993;SDS011;9122;48.406;9.984;2023-06-22T14:28:40;6.63;;;6.13;;
17993;SDS011;9122;48.406;9.984;2023-06-22T14:31:27;15.32;;;6.75;;
17993;SDS011;9122;48.406;9.984;2023-06-22T14:34:11;10.50;;;6.88;;
17993;SDS011;9122;48.406;9.984;2023-06-22T14:36:56;8.88;;;6.35;;
17993;SDS011;9122;48.406;9.984;2023-06-22T14:39:41;11.15;;;7.30;;
17993;SDS011;9122;48.406;9.984;2023-06-22T14:42:26;10.23;;;7.25;;
17993;SDS011;9122;48.406;9.984;2023-06-22T14:45:12;11.05;;;7.13;;
17993;SDS011;9122;48.406;9.984;2023-06-22T14:47:56;10.60;;;7.00;;
17993;SDS011;9122;48.406;9.984;2023-06-22T14:50:41;10.52;;;8.15;;
17993;SDS011;9122;48.406;9.984;2023-06-22T14:53:26;16.10;;;7.45;;
17993;SDS011;9122;48.406;9.984;2023-06-22T14:56:10;14.60;;;7.82;;
17993;SDS011;9122;48.406;9.984;2023-06-22T14:58:54;9.13;;;6.65;;
17993;SDS011;9122;48.406;9.984;2023-06-22T15:01:38;9.65;;;7.00;;
17993;SDS011;9122;48.406;9.984;2023-06-22T15:04:22;9.55;;;7.88;;
17993;SDS011;9122;48.406;9.984;2023-06-22T15:07:07;14.70;;;7.65;;
17993;SDS011;9122;48.406;9.984;2023-06-22T15:09:54;9.38;;;6.70;;
17993;SDS011;9122;48.406;9.984;2023-06-22T15:12:38;9.05;;;7.45;;
17993;SDS011;9122;48.406;9.984;2023-06-22T15:15:22;13.30;;;8.23;;
17993;SDS011;9122;48.406;9.984;2023-06-22T15:18:06;11.45;;;6.57;;
17993;SDS011;9122;48.406;9.984;2023-06-22T15:20:50;9.10;;;8.30;;
17993;SDS011;9122;48.406;9.984;2023-06-22T15:23:34;10.10;;;8.07;;
17993;SDS011;9122;48.406;9.984;2023-06-22T15:26:19;10.57;;;7.00;;
17993;SDS011;9122;48.406;9.984;2023-06-22T15:29:04;8.75;;;7.03;;
17993;SDS011;9122;48.406;9.984;2023-06-22T15:31:48;8.23;;;7.07;;
17993;SDS011;9122;48.406;9.984;2023-06-22T15:34:32;13.65;;;7.68;;
17993;SDS011;9122;48.406;9.984;2023-06-22T15:37:17;12.70;;;7.55;;
17993;SDS011;9122;48.406;9.984;2023-06-22T15:40:02;8.70;;;7.85;;
17993;SDS011;9122;48.406;9.984;2023-06-22T15:42:50;13.73;;;8.15;;
17993;SDS011;9122;48.406;9.984;2023-06-22T15:45:35;14.23;;;8.40;;
17993;SDS011;9122;48.406;9.984;2023-06-22T15:48:19;11.98;;;8.35;;
17993;SDS011;9122;48.406;9.984;2023-06-22T15:51:04;10.70;;;8.63;;
17993;SDS011;9122;48.406;9.984;2023-06-22T15:53:48;13.45;;;8.57;;
17993;SDS011;9122;48.406;9.984;2023-06-22T15:56:32;11.02;;;8.55;;
17993;SDS011;9122;48.406;9.984;2023-06-22T15:59:17;9.05;;;8.27;;
17993;SDS011;9122;48.406;9.984;2023-06-22T16:02:01;13.00;;;8.52;;
17993;SDS011;9122;48.406;9.984;2023-06-22T16:04:46;14.50;;;8.90;;
17993;SDS011;9122;48.406;9.984;2023-06-22T16:07:30;10.15;;;9.13;;
17993;SDS011;9122;48.406;9.984;2023-06-22T16:10:15;11.05;;;8.27;;
17993;SDS011;9122;48.406;9.984;2023-06-22T16:13:01;8.77;;;7.95;;
17993;SDS011;9122;48.406;9.984;2023-06-22T16:15:45;11.15;;;7.38;;
17993;SDS011;9122;48.406;9.984;2023-06-22T16:18:30;10.63;;;8.23;;
17993;SDS011;9122;48.406;9.984;2023-06-22T16:21:14;12.45;;;8.07;;
17993;SDS011;9122;48.406;9.984;2023-06-22T16:23:59;13.90;;;8.32;;
17993;SDS011;9122;48.406;9.984;2023-06-22T16:26:43;10.23;;;8.10;;
17993;SDS011;9122;48.406;9.984;2023-06-22T16:29:31;9.35;;;8.43;;
17993;SDS011;9122;48.406;9.984;2023-06-22T16:32:15;11.48;;;9.70;;
17993;SDS011;9122;48.406;9.984;2023-06-22T16:35:01;11.63;;;8.98;;
17993;SDS011;9122;48.406;9.984;2023-06-22T16:37:45;10.13;;;8.32;;
17993;SDS011;9122;48.406;9.984;2023-06-22T16:40:30;15.52;;;9.30;;
17993;SDS011;9122;48.406;9.984;2023-06-22T16:43:15;10.27;;;7.68;;
17993;SDS011;9122;48.406;9.984;2023-06-22T16:46:05;10.27;;;7.43;;
17993;SDS011;9122;48.406;9.984;2023-06-22T16:48:50;5.65;;;5.25;;
17993;SDS011;9122;48.406;9.984;2023-06-22T16:51:35;7.90;;;6.63;;
17993;SDS011;9122;48.406;9.984;2023-06-22T16:54:20;20.65;;;9.15;;